GEML Airport Information

Runway Information
Runway 15 Length 4685 ft width 148 ft
Elevation 156 ft Threshold 755 ft Heading 146
Runway 33 Length 4685 ft Width 148 ft
Elevation 133 ft Threshold 0 ft Heading 326
Airport Frequencies
Type GND Name GND Frequency 121.7 MHZ
Type TWR Name TWR Frequency 118.5 MHZ
Airport Navaids
Type VOR-DME Name Melilla Frequency 114250 KHZ
Type DME Name Melilla Frequency 117400 KHZ
Airport Weather Information & NOTAM
ADDS - METARS form results

(0558 UTC 19 July 2019)
Data provider http://aviationweather.gov/metar/data/
 
METAR text: GEML 190530Z 32003KT 9999 SCT012 BKN020 23/19 Q1013
Conditions at: GEML (MELILLA , ES) observed 0530 UTC 19 July 2019
Temperature: 23.0°C (73°F)
Dewpoint: 19.0°C (66°F) [RH = 78%]
Pressure (altimeter): 29.91 inches Hg (1013.0 mb)
Winds: from the NW (320 degrees) at 3 MPH (3 knots; 1.5 m/s)
Visibility: 6 or more miles (10+ km)
Ceiling: 2000 feet AGL
Clouds: scattered clouds at 1200 feet AGL
broken clouds at 2000 feet AGL
Weather: no significant weather observed at this time

METAR text: GEML 190500Z 08001KT 9999 SCT012 OVC018 23/19 Q1013
Conditions at: GEML (MELILLA , ES) observed 0500 UTC 19 July 2019
Temperature: 23.0°C (73°F)
Dewpoint: 19.0°C (66°F) [RH = 78%]
Pressure (altimeter): 29.91 inches Hg (1013.0 mb)
Winds: from the E (80 degrees) at 1 MPH (1 knots; 0.5 m/s)
Visibility: 6 or more miles (10+ km)
Ceiling: 1800 feet AGL
Clouds: scattered clouds at 1200 feet AGL
overcast cloud deck at 1800 feet AGL
Weather: no significant weather observed at this time

Forecast for: GEML (MELILLA , ES)
Text: TAF GEML 190200Z 1903/2003 08006KT 9999 SCT015 TX28/1915Z TN21/1903Z
Forecast period: 0300 UTC 19 July 2019 to 0300 UTC 20 July 2019
Forecast type: FROM: standard forecast or significant change
Winds: from the E (80 degrees) at 7 MPH (6 knots; 3.1 m/s)
Visibility: 6 or more miles 10+ km)
Ceiling: at least 12,000 feet AGL
Clouds: scattered clouds at 1500 feet AGL
Weather: no significant weather forecast for this period
Text: TEMPO 1903/1914 BKN010
Forecast period: 0300 to 1400 UTC 19 July 2019
Forecast type: TEMPORARY: The following changes expected for less than half the time period
Visibility: missing
Ceiling: 1000 feet AGL
Clouds: broken clouds at 1000 feet AGL
Weather: no significant weather forecast for this period
Text: PROB30
Forecast period: 2100 UTC 19 July 2019 to 0300 UTC 20 July 2019
Forecast type: TEMPORARY: The following changes expected for less than half the time period
Visibility: missing
Ceiling: 1000 feet AGL
Clouds: broken clouds at 1000 feet AGL
Weather: no significant weather forecast for this period